createdAt,value
2023-03-02T00:00:25.948Z,63.47
2023-03-02T00:01:25.965Z,61.32
2023-03-02T00:02:25.965Z,65.06
2023-03-02T00:03:25.987Z,59.96
2023-03-02T00:04:25.941Z,61.52
2023-03-02T00:05:25.913Z,62.38
2023-03-02T00:06:25.930Z,64.16
2023-03-02T00:07:25.944Z,62.74
2023-03-02T00:08:25.907Z,59.60
2023-03-02T00:09:25.939Z,57.89
2023-03-02T00:10:25.910Z,60.30
2023-03-02T00:11:25.901Z,61.62
2023-03-02T00:12:25.877Z,62.13
2023-03-02T00:13:25.877Z,64.09
2023-03-02T00:14:25.884Z,62.13
2023-03-02T00:15:25.868Z,62.52
2023-03-02T00:16:26.015Z,61.38
2023-03-02T00:17:25.853Z,63.14
2023-03-02T00:18:25.860Z,60.78
2023-03-02T00:19:25.852Z,57.70
2023-03-02T00:20:25.845Z,60.78
2023-03-02T00:21:25.823Z,61.44
2023-03-02T00:22:25.805Z,59.10
2023-03-02T00:23:25.825Z,59.20
2023-03-02T00:24:25.833Z,60.35
2023-03-02T00:25:25.805Z,59.51
2023-03-02T00:26:25.826Z,61.08
2023-03-02T00:27:25.794Z,59.69
2023-03-02T00:28:25.779Z,61.47
2023-03-02T00:29:25.780Z,59.16
2023-03-02T00:30:25.769Z,60.93
2023-03-02T00:31:25.839Z,58.73
2023-03-02T00:32:25.803Z,58.40
2023-03-02T00:33:25.772Z,60.00
2023-03-02T00:34:25.744Z,58.47
2023-03-02T00:35:25.792Z,60.22
2023-03-02T00:36:25.769Z,63.11
2023-03-02T00:37:25.746Z,62.53
2023-03-02T00:38:25.720Z,59.15
2023-03-02T00:39:25.710Z,60.37
2023-03-02T00:40:25.746Z,60.97
2023-03-02T00:41:25.721Z,59.49
2023-03-02T00:42:25.709Z,59.55
2023-03-02T00:43:25.699Z,63.20
2023-03-02T00:44:25.716Z,61.45
2023-03-02T00:45:25.672Z,57.53
2023-03-02T00:46:25.751Z,58.01
2023-03-02T00:47:25.660Z,60.69
2023-03-02T00:48:25.670Z,62.06
2023-03-02T00:49:25.654Z,63.75
2023-03-02T00:50:25.646Z,62.99
2023-03-02T00:51:25.661Z,61.63
2023-03-02T00:52:25.635Z,61.31
2023-03-02T00:53:25.629Z,59.17
2023-03-02T00:54:25.618Z,60.64
2023-03-02T00:55:25.624Z,60.88
2023-03-02T00:56:25.604Z,61.80
2023-03-02T00:57:25.636Z,61.96
2023-03-02T00:58:25.633Z,60.55
2023-03-02T00:59:25.596Z,61.61
2023-03-02T01:00:25.596Z,60.00
2023-03-02T01:01:25.583Z,62.14
2023-03-02T01:02:25.725Z,62.29
2023-03-02T01:03:25.666Z,63.73
2023-03-02T01:04:25.594Z,60.54
2023-03-02T01:05:25.561Z,61.20
2023-03-02T01:06:25.543Z,62.21
2023-03-02T01:07:25.552Z,58.89
2023-03-02T01:08:25.545Z,61.44
2023-03-02T01:09:25.550Z,61.05
2023-03-02T01:10:25.546Z,60.39
2023-03-02T01:11:25.518Z,60.01
2023-03-02T01:12:25.520Z,58.54
2023-03-02T01:13:25.516Z,61.31
2023-03-02T01:14:25.537Z,61.74
2023-03-02T01:15:25.496Z,58.89
2023-03-02T01:16:25.558Z,59.75
2023-03-02T01:17:25.493Z,61.51
2023-03-02T01:18:25.497Z,61.23
2023-03-02T01:19:25.484Z,61.02
2023-03-02T01:20:25.474Z,62.34
2023-03-02T01:21:25.512Z,61.66
2023-03-02T01:22:25.465Z,61.70
2023-03-02T01:23:25.460Z,60.89
2023-03-02T01:24:25.465Z,59.53
2023-03-02T01:25:25.449Z,61.49
2023-03-02T01:26:25.447Z,60.80
2023-03-02T01:27:25.444Z,58.96
2023-03-02T01:28:25.430Z,58.81
2023-03-02T01:29:25.418Z,59.74
2023-03-02T01:30:25.425Z,61.20
2023-03-02T01:31:25.464Z,60.65
2023-03-02T01:32:25.475Z,62.17
2023-03-02T01:33:25.418Z,62.35
2023-03-02T01:34:25.425Z,60.45
2023-03-02T01:35:25.398Z,60.22
2023-03-02T01:36:25.398Z,62.72
2023-03-02T01:37:25.382Z,63.30
2023-03-02T01:38:25.475Z,59.25
2023-03-02T01:39:25.370Z,60.45
2023-03-02T01:40:25.364Z,60.85
2023-03-02T01:41:25.389Z,58.41
2023-03-02T01:42:25.342Z,59.26
2023-03-02T01:43:25.354Z,59.28
2023-03-02T01:44:25.341Z,61.50
2023-03-02T01:45:25.349Z,61.80
2023-03-02T01:46:25.343Z,61.06
2023-03-02T01:47:25.324Z,59.09
2023-03-02T01:48:25.332Z,62.36
2023-03-02T01:49:25.327Z,58.00
2023-03-02T01:50:25.300Z,60.44
2023-03-02T01:51:25.299Z,60.17
2023-03-02T01:52:25.321Z,60.75
2023-03-02T01:53:25.317Z,61.02
2023-03-02T01:54:25.274Z,62.00
2023-03-02T01:55:25.271Z,60.05
2023-03-02T01:56:25.268Z,61.31
2023-03-02T01:57:25.254Z,61.33
2023-03-02T01:58:25.249Z,58.86
2023-03-02T01:59:25.276Z,58.66
2023-03-02T02:00:25.249Z,58.87
2023-03-02T02:01:25.264Z,61.04
2023-03-02T02:02:25.242Z,59.83
2023-03-02T02:03:25.230Z,59.55
2023-03-02T02:04:25.258Z,62.27
2023-03-02T02:05:25.215Z,60.85
2023-03-02T02:06:25.213Z,63.83
2023-03-02T02:07:25.203Z,58.79
2023-03-02T02:08:25.204Z,59.91
2023-03-02T02:09:25.201Z,59.71
2023-03-02T02:10:25.173Z,62.26
2023-03-02T02:11:25.168Z,63.80
2023-03-02T02:12:25.177Z,64.02
2023-03-02T02:13:25.187Z,61.34
2023-03-02T02:14:25.165Z,58.92
2023-03-02T02:15:25.149Z,59.96
2023-03-02T02:16:25.163Z,60.97
2023-03-02T02:17:25.133Z,59.52
2023-03-02T02:18:25.125Z,62.28
2023-03-02T02:19:25.133Z,58.91
2023-03-02T02:20:25.119Z,59.06
2023-03-02T02:21:25.107Z,61.00
2023-03-02T02:22:25.095Z,60.15
2023-03-02T02:23:25.111Z,58.67
2023-03-02T02:24:25.110Z,61.28
2023-03-02T02:25:25.079Z,58.69
2023-03-02T02:26:25.065Z,61.03
2023-03-02T02:27:25.068Z,59.90
2023-03-02T02:28:25.057Z,60.29
2023-03-02T02:29:25.052Z,58.59
2023-03-02T02:30:25.094Z,58.51
2023-03-02T02:31:25.062Z,61.01
2023-03-02T02:32:25.081Z,62.72
2023-03-02T02:33:25.026Z,61.18
2023-03-02T02:34:25.014Z,59.49
2023-03-02T02:35:25.049Z,61.71
2023-03-02T02:36:25.031Z,60.94
2023-03-02T02:37:25.008Z,60.45
2023-03-02T02:38:24.996Z,59.03
2023-03-02T02:39:24.982Z,60.77
2023-03-02T02:40:24.975Z,59.84
2023-03-02T02:41:24.980Z,58.06
2023-03-02T02:42:24.986Z,60.66
2023-03-02T02:43:24.971Z,59.54
2023-03-02T02:44:24.947Z,59.15
2023-03-02T02:45:24.945Z,58.21
2023-03-02T02:46:24.956Z,58.57
2023-03-02T02:47:24.956Z,60.74
2023-03-02T02:48:24.945Z,61.63
2023-03-02T02:49:24.922Z,58.85
2023-03-02T02:50:24.912Z,60.15
2023-03-02T02:51:24.913Z,61.75
2023-03-02T02:52:24.897Z,59.54
2023-03-02T02:53:24.912Z,58.98
2023-03-02T02:54:24.891Z,59.08
2023-03-02T02:55:24.886Z,62.26
2023-03-02T02:56:24.890Z,60.91
2023-03-02T02:57:24.876Z,61.62
2023-03-02T02:58:24.885Z,59.67
2023-03-02T02:59:24.870Z,61.17
2023-03-02T03:00:24.859Z,61.14
2023-03-02T03:01:24.875Z,61.45
2023-03-02T03:02:24.852Z,59.68
2023-03-02T03:03:24.853Z,60.87
2023-03-02T03:04:24.929Z,62.18
2023-03-02T03:05:24.826Z,61.72
2023-03-02T03:06:24.830Z,60.88
2023-03-02T03:07:24.823Z,60.37
2023-03-02T03:08:24.815Z,60.18
2023-03-02T03:09:24.888Z,61.27
2023-03-02T03:10:24.794Z,60.26
2023-03-02T03:11:24.808Z,60.93
2023-03-02T03:12:24.811Z,59.84
2023-03-02T03:13:24.793Z,63.55
2023-03-02T03:14:24.776Z,60.90
2023-03-02T03:15:24.775Z,60.08
2023-03-02T03:16:24.804Z,58.65
2023-03-02T03:17:24.776Z,62.70
2023-03-02T03:18:24.761Z,62.59
2023-03-02T03:19:24.731Z,61.93
2023-03-02T03:20:24.730Z,60.39
2023-03-02T03:21:24.724Z,59.65
2023-03-02T03:22:24.708Z,60.26
2023-03-02T03:23:24.712Z,63.01
2023-03-02T03:24:24.715Z,61.73
2023-03-02T03:25:24.694Z,61.77
2023-03-02T03:26:24.687Z,60.89
2023-03-02T03:27:24.689Z,59.35
2023-03-02T03:28:24.668Z,62.03
2023-03-02T03:29:24.704Z,63.20
2023-03-02T03:30:24.663Z,61.12
2023-03-02T03:31:24.681Z,61.64
2023-03-02T03:32:24.704Z,60.55
2023-03-02T03:33:24.652Z,60.11
2023-03-02T03:34:24.656Z,64.02
2023-03-02T03:35:24.759Z,64.42
2023-03-02T03:36:24.614Z,61.00
2023-03-02T03:37:24.618Z,61.31
2023-03-02T03:38:24.606Z,62.00
2023-03-02T03:39:24.599Z,61.31
2023-03-02T03:40:24.599Z,61.01
2023-03-02T03:41:24.608Z,62.13
2023-03-02T03:42:24.575Z,62.37
2023-03-02T03:43:24.571Z,61.96
2023-03-02T03:44:24.566Z,62.96
2023-03-02T03:45:24.560Z,63.83
2023-03-02T03:46:24.585Z,62.62
2023-03-02T03:47:24.557Z,62.09
2023-03-02T03:48:24.534Z,60.73
2023-03-02T03:49:24.530Z,60.76
2023-03-02T03:50:24.528Z,62.16
2023-03-02T03:51:24.542Z,62.94
2023-03-02T03:52:24.501Z,64.29
2023-03-02T03:53:24.532Z,62.38
2023-03-02T03:54:24.527Z,63.28
2023-03-02T03:55:24.490Z,61.86
2023-03-02T03:56:24.486Z,61.88
2023-03-02T03:57:24.472Z,61.66
2023-03-02T03:58:24.543Z,62.30
2023-03-02T03:59:24.497Z,63.29
2023-03-02T04:00:24.492Z,63.43
2023-03-02T04:01:24.484Z,62.88
2023-03-02T04:02:24.512Z,62.47
2023-03-02T04:03:24.480Z,62.24
2023-03-02T04:04:24.480Z,61.89
2023-03-02T04:05:24.435Z,61.18
2023-03-02T04:06:24.437Z,62.97
2023-03-02T04:07:24.423Z,63.16
2023-03-02T04:08:24.413Z,61.27
2023-03-02T04:09:24.418Z,63.90
2023-03-02T04:10:24.439Z,63.30
2023-03-02T04:11:24.394Z,61.41
2023-03-02T04:12:24.404Z,62.93
2023-03-02T04:13:24.406Z,61.85
2023-03-02T04:14:24.365Z,63.24
2023-03-02T04:15:24.465Z,62.25
2023-03-02T04:16:24.361Z,61.47
2023-03-02T04:17:24.378Z,61.72
2023-03-02T04:18:24.338Z,62.07
2023-03-02T04:19:24.337Z,62.93
2023-03-02T04:20:24.342Z,65.04
2023-03-02T04:21:24.321Z,62.34
2023-03-02T04:22:24.323Z,62.96
2023-03-02T04:23:24.329Z,63.34
2023-03-02T04:24:24.301Z,61.09
2023-03-02T04:25:24.317Z,62.10
2023-03-02T04:26:24.300Z,63.08
2023-03-02T04:27:24.301Z,63.63
2023-03-02T04:28:24.286Z,63.09
2023-03-02T04:29:24.296Z,64.11
2023-03-02T04:30:24.286Z,64.39
2023-03-02T04:31:24.343Z,62.52
2023-03-02T04:32:24.321Z,64.06
2023-03-02T04:33:24.250Z,62.33
2023-03-02T04:34:24.255Z,62.96
2023-03-02T04:35:24.285Z,63.53
2023-03-02T04:36:24.237Z,62.62
2023-03-02T04:37:24.232Z,64.18
2023-03-02T04:38:24.221Z,62.92
2023-03-02T04:39:24.226Z,63.96
2023-03-02T04:40:24.214Z,64.17
2023-03-02T04:41:24.205Z,64.71
2023-03-02T04:42:24.221Z,62.34
2023-03-02T04:43:24.195Z,63.63
2023-03-02T04:44:24.175Z,63.89
2023-03-02T04:45:24.189Z,63.06
2023-03-02T04:46:24.223Z,66.38
2023-03-02T04:47:24.188Z,64.82
2023-03-02T04:48:24.155Z,62.31
2023-03-02T04:49:24.145Z,63.50
2023-03-02T04:50:24.141Z,63.78
2023-03-02T04:51:24.254Z,63.04
2023-03-02T04:52:24.145Z,63.61
2023-03-02T04:53:24.138Z,64.30
2023-03-02T04:54:24.114Z,62.81
2023-03-02T04:55:24.131Z,63.05
2023-03-02T04:56:24.137Z,63.99
2023-03-02T04:57:24.112Z,63.76
2023-03-02T04:58:24.085Z,62.60
2023-03-02T04:59:24.100Z,62.89
2023-03-02T05:00:24.089Z,63.81
2023-03-02T05:01:24.063Z,64.79
2023-03-02T05:02:24.077Z,66.00
2023-03-02T05:03:24.061Z,64.01
2023-03-02T05:04:24.236Z,64.37
2023-03-02T05:05:24.085Z,65.04
2023-03-02T05:06:24.045Z,63.53
2023-03-02T05:07:24.044Z,64.38
2023-03-02T05:08:24.024Z,65.79
2023-03-02T05:09:24.014Z,64.45
2023-03-02T05:10:24.016Z,64.17
2023-03-02T05:11:24.030Z,65.81
2023-03-02T05:12:24.033Z,64.09
2023-03-02T05:13:23.999Z,66.70
2023-03-02T05:14:24.012Z,62.72
2023-03-02T05:15:23.964Z,64.72
2023-03-02T05:16:23.998Z,65.66
2023-03-02T05:17:24.030Z,63.04
2023-03-02T05:18:23.949Z,63.93
2023-03-02T05:19:23.945Z,63.55
2023-03-02T05:20:23.932Z,64.30
2023-03-02T05:21:23.938Z,62.88
2023-03-02T05:22:23.925Z,65.92
2023-03-02T05:23:25.536Z,63.64
2023-03-02T05:24:23.911Z,64.95
2023-03-02T05:25:23.924Z,64.24
2023-03-02T05:26:23.904Z,64.06
2023-03-02T05:27:23.894Z,65.29
2023-03-02T05:28:23.892Z,64.54
2023-03-02T05:29:23.904Z,64.71
2023-03-02T05:30:23.874Z,64.17
2023-03-02T05:31:23.924Z,64.72
2023-03-02T05:32:23.891Z,64.76
2023-03-02T05:33:23.855Z,63.64
2023-03-02T05:34:23.860Z,63.52
2023-03-02T05:35:23.907Z,64.08
2023-03-02T05:36:23.840Z,64.87
2023-03-02T05:37:23.831Z,64.75
2023-03-02T05:38:23.827Z,65.38
2023-03-02T05:39:23.838Z,65.67
2023-03-02T05:40:23.820Z,66.11
2023-03-02T05:41:23.820Z,64.31
2023-03-02T05:42:23.794Z,64.27
2023-03-02T05:43:23.817Z,64.81
2023-03-02T05:44:23.810Z,65.88
2023-03-02T05:45:23.782Z,65.16
2023-03-02T05:46:23.807Z,64.71
2023-03-02T05:47:23.796Z,66.61
2023-03-02T05:48:23.752Z,63.27
2023-03-02T05:49:23.768Z,63.54
2023-03-02T05:50:23.759Z,63.96
2023-03-02T05:51:23.763Z,63.68
2023-03-02T05:52:23.750Z,64.56
2023-03-02T05:53:23.730Z,63.73
2023-03-02T05:54:23.729Z,65.11
2023-03-02T05:55:23.720Z,64.05
2023-03-02T05:56:23.729Z,64.79
2023-03-02T05:57:30.715Z,64.38
2023-03-02T05:58:23.712Z,62.96
2023-03-02T05:59:23.683Z,65.34
2023-03-02T06:00:23.710Z,63.82
2023-03-02T06:01:23.706Z,66.33
2023-03-02T06:02:23.739Z,63.95
2023-03-02T06:03:23.697Z,65.05
2023-03-02T06:04:23.658Z,65.12
2023-03-02T06:05:23.644Z,65.36
2023-03-02T06:06:23.671Z,64.71
2023-03-02T06:07:23.630Z,65.99
2023-03-02T06:08:23.629Z,66.14
2023-03-02T06:09:23.614Z,64.21
2023-03-02T06:10:23.611Z,66.28
2023-03-02T06:11:23.604Z,64.64
2023-03-02T06:12:23.613Z,64.94
2023-03-02T06:13:23.595Z,65.57
2023-03-02T06:14:23.597Z,65.59
2023-03-02T06:15:23.612Z,64.42
2023-03-02T06:16:23.682Z,64.76
2023-03-02T06:17:23.594Z,65.92
2023-03-02T06:18:23.553Z,64.65
2023-03-02T06:19:23.572Z,64.82
2023-03-02T06:20:23.548Z,65.11
2023-03-02T06:21:23.589Z,66.56
2023-03-02T06:22:23.554Z,66.25
2023-03-02T06:23:23.539Z,66.22
2023-03-02T06:24:23.519Z,66.35
2023-03-02T06:25:23.529Z,65.67
2023-03-02T06:26:23.521Z,64.53
2023-03-02T06:27:23.535Z,65.33
2023-03-02T06:28:23.493Z,67.25
2023-03-02T06:29:23.503Z,66.12
2023-03-02T06:30:23.506Z,64.85
2023-03-02T06:31:23.521Z,65.57
2023-03-02T06:32:23.824Z,66.47
2023-03-02T06:33:23.468Z,64.38
2023-03-02T06:34:23.472Z,64.90
2023-03-02T06:35:23.653Z,66.12
2023-03-02T06:36:23.536Z,65.46
2023-03-02T06:37:23.443Z,65.21
2023-03-02T06:38:23.439Z,64.95
2023-03-02T06:39:23.456Z,66.48
2023-03-02T06:40:23.421Z,65.32
2023-03-02T06:41:23.428Z,65.20
2023-03-02T06:42:23.425Z,66.55
2023-03-02T06:43:23.422Z,68.09
2023-03-02T06:44:23.403Z,66.99
2023-03-02T06:45:23.424Z,66.88
2023-03-02T06:46:23.414Z,64.90
2023-03-02T06:47:23.383Z,66.75
2023-03-02T06:48:23.403Z,65.09
2023-03-02T06:49:23.373Z,65.63
2023-03-02T06:50:23.359Z,66.85
2023-03-02T06:51:23.359Z,65.65
2023-03-02T06:52:23.368Z,65.83
2023-03-02T06:53:23.356Z,65.03
2023-03-02T06:54:24.204Z,63.63
2023-03-02T06:55:23.336Z,63.29
2023-03-02T06:56:23.345Z,64.50
2023-03-02T06:57:23.322Z,63.73
2023-03-02T06:58:23.307Z,62.35
2023-03-02T06:59:23.302Z,61.89
2023-03-02T07:00:25.651Z,64.47
2023-03-02T07:01:23.334Z,65.38
2023-03-02T07:02:23.295Z,64.11
2023-03-02T07:03:23.282Z,64.01
2023-03-02T07:04:23.291Z,64.68
2023-03-02T07:05:23.272Z,64.13
2023-03-02T07:06:23.281Z,62.83
2023-03-02T07:07:23.254Z,63.80
2023-03-02T07:08:23.253Z,64.04
2023-03-02T07:09:23.241Z,63.90
2023-03-02T07:10:23.238Z,61.85
2023-03-02T07:11:23.245Z,65.34
2023-03-02T07:12:23.239Z,62.27
2023-03-02T07:13:23.220Z,63.89
2023-03-02T07:14:23.235Z,63.29
2023-03-02T07:15:23.192Z,61.60
2023-03-02T07:16:23.279Z,61.82
2023-03-02T07:17:23.196Z,61.04
2023-03-02T07:18:23.199Z,62.26
2023-03-02T07:19:23.167Z,62.57
2023-03-02T07:20:23.308Z,63.15
2023-03-02T07:21:23.161Z,62.05
2023-03-02T07:22:23.176Z,63.34
2023-03-02T07:23:23.151Z,61.12
2023-03-02T07:24:23.143Z,62.20
2023-03-02T07:25:23.159Z,58.97
2023-03-02T07:26:23.142Z,61.24
2023-03-02T07:27:23.129Z,61.14
2023-03-02T07:28:23.111Z,60.18
2023-03-02T07:29:23.139Z,61.69
2023-03-02T07:30:23.121Z,61.13
2023-03-02T07:31:23.098Z,62.32
2023-03-02T07:32:23.178Z,61.53
2023-03-02T07:33:23.083Z,63.07
2023-03-02T07:34:23.081Z,63.19
2023-03-02T07:35:23.124Z,62.87
2023-03-02T07:36:23.099Z,62.49
2023-03-02T07:37:23.065Z,61.77
2023-03-02T07:38:23.058Z,58.67
2023-03-02T07:39:23.065Z,61.50
2023-03-02T07:40:23.059Z,61.26
2023-03-02T07:41:23.043Z,60.74
2023-03-02T07:42:23.061Z,60.79
2023-03-02T07:43:23.043Z,61.82
2023-03-02T07:44:23.025Z,60.41
2023-03-02T07:45:23.023Z,62.40
2023-03-02T07:46:23.082Z,62.91
2023-03-02T07:47:23.012Z,60.58
2023-03-02T07:48:23.019Z,62.27
2023-03-02T07:49:23.002Z,61.68
2023-03-02T07:50:22.995Z,60.90
2023-03-02T07:51:22.980Z,60.37
2023-03-02T07:52:22.973Z,61.66
2023-03-02T07:53:22.973Z,61.55
2023-03-02T07:54:22.994Z,60.03
2023-03-02T07:55:22.957Z,60.27
2023-03-02T07:56:22.974Z,60.28
2023-03-02T07:57:22.946Z,60.76
2023-03-02T07:58:22.932Z,61.59
2023-03-02T07:59:22.936Z,59.80
2023-03-02T08:00:22.995Z,61.54
2023-03-02T08:01:22.970Z,60.12
2023-03-02T08:02:23.016Z,60.79
2023-03-02T08:03:22.925Z,59.60
2023-03-02T08:04:22.896Z,58.64
2023-03-02T08:05:22.902Z,58.24
2023-03-02T08:06:22.916Z,60.61
2023-03-02T08:07:22.881Z,60.64
2023-03-02T08:08:22.871Z,61.10
2023-03-02T08:09:22.886Z,60.32
2023-03-02T08:10:22.869Z,58.55
2023-03-02T08:11:22.885Z,61.05
2023-03-02T08:12:22.880Z,60.44
2023-03-02T08:13:22.846Z,60.62
2023-03-02T08:14:22.875Z,60.87
2023-03-02T08:15:22.823Z,59.16
2023-03-02T08:16:22.866Z,59.27
2023-03-02T08:17:22.832Z,60.75
2023-03-02T08:18:22.842Z,61.42
2023-03-02T08:19:22.811Z,61.77
2023-03-02T08:20:22.812Z,61.06
2023-03-02T08:21:22.792Z,60.24
2023-03-02T08:22:22.787Z,60.63
2023-03-02T08:23:22.904Z,60.91
2023-03-02T08:24:22.776Z,60.38
2023-03-02T08:25:22.761Z,61.66
2023-03-02T08:26:22.750Z,61.40
2023-03-02T08:27:22.741Z,58.61
2023-03-02T08:28:22.754Z,60.72
2023-03-02T08:29:22.730Z,59.68
2023-03-02T08:30:22.719Z,59.67
2023-03-02T08:31:22.756Z,61.04
2023-03-02T08:32:22.803Z,61.06
2023-03-02T08:33:22.734Z,60.61
2023-03-02T08:34:22.726Z,61.21
2023-03-02T08:35:22.723Z,60.47
2023-03-02T08:36:22.680Z,60.30
2023-03-02T08:37:22.711Z,59.63
2023-03-02T08:38:22.686Z,60.78
2023-03-02T08:39:22.658Z,61.77
2023-03-02T08:40:22.711Z,59.05
2023-03-02T08:41:22.653Z,62.10
2023-03-02T08:42:22.645Z,59.86
2023-03-02T08:43:22.658Z,59.97
2023-03-02T08:44:22.631Z,61.17
2023-03-02T08:45:22.614Z,59.07
2023-03-02T08:46:22.663Z,61.25
2023-03-02T08:47:22.635Z,58.65
2023-03-02T08:48:22.629Z,61.81
2023-03-02T08:49:22.598Z,60.13
2023-03-02T08:50:22.585Z,58.32
2023-03-02T08:51:22.581Z,61.17
2023-03-02T08:52:22.589Z,61.98
2023-03-02T08:53:22.579Z,60.11
2023-03-02T08:54:22.554Z,61.18
2023-03-02T08:55:22.635Z,60.17
2023-03-02T08:56:22.529Z,62.83
2023-03-02T08:57:22.520Z,58.81
2023-03-02T08:58:22.518Z,58.06
2023-03-02T08:59:22.573Z,59.89
2023-03-02T09:00:22.505Z,57.36
2023-03-02T09:01:22.638Z,59.73
2023-03-02T09:02:22.498Z,60.92
2023-03-02T09:03:22.512Z,58.32
2023-03-02T09:04:22.590Z,59.32
2023-03-02T09:05:22.513Z,61.00
2023-03-02T09:06:22.468Z,59.94
2023-03-02T09:07:22.488Z,60.31
2023-03-02T09:08:22.455Z,61.50
2023-03-02T09:09:22.439Z,59.40
2023-03-02T09:10:22.453Z,61.53
2023-03-02T09:11:22.456Z,60.64
2023-03-02T09:12:22.451Z,61.54
2023-03-02T09:13:22.421Z,60.82
2023-03-02T09:14:22.435Z,61.15
2023-03-02T09:15:22.426Z,60.58
2023-03-02T09:16:22.482Z,60.53
2023-03-02T09:17:22.384Z,60.50
2023-03-02T09:18:22.421Z,58.64
2023-03-02T09:19:22.403Z,60.67
2023-03-02T09:20:22.394Z,59.55
2023-03-02T09:21:22.386Z,59.32
2023-03-02T09:22:22.361Z,60.68
2023-03-02T09:23:22.356Z,60.42
2023-03-02T09:24:22.370Z,60.44
2023-03-02T09:25:22.333Z,61.37
2023-03-02T09:26:22.348Z,58.17
2023-03-02T09:27:22.375Z,60.01
2023-03-02T09:28:22.322Z,58.27
2023-03-02T09:29:22.327Z,58.92
2023-03-02T09:30:22.285Z,59.55
2023-03-02T09:31:22.339Z,58.74
2023-03-02T09:32:22.364Z,61.57
2023-03-02T09:33:22.296Z,61.03
2023-03-02T09:34:22.265Z,58.17
2023-03-02T09:35:22.287Z,59.46
2023-03-02T09:36:22.272Z,59.16
2023-03-02T09:37:22.261Z,58.46
2023-03-02T09:38:22.240Z,59.42
2023-03-02T09:39:22.241Z,58.77
2023-03-02T09:40:22.219Z,59.24
2023-03-02T09:41:22.246Z,57.72
2023-03-02T09:42:24.057Z,59.15
2023-03-02T09:43:22.226Z,59.92
2023-03-02T09:44:22.227Z,57.96
2023-03-02T09:45:22.197Z,59.34
2023-03-02T09:46:22.279Z,59.41
2023-03-02T09:47:34.851Z,58.35
2023-03-02T09:48:23.170Z,59.07
2023-03-02T09:49:22.164Z,57.98
2023-03-02T09:50:22.152Z,58.71
2023-03-02T09:51:22.205Z,59.95
2023-03-02T09:52:22.135Z,60.17
2023-03-02T09:53:22.144Z,59.39
2023-03-02T09:54:22.139Z,59.95
2023-03-02T09:55:22.116Z,59.61
2023-03-02T09:56:22.134Z,60.53
2023-03-02T09:57:22.114Z,59.63
2023-03-02T09:58:22.099Z,59.24
2023-03-02T09:59:22.086Z,59.71
2023-03-02T10:00:22.118Z,58.83
2023-03-02T10:01:22.069Z,59.74
2023-03-02T10:02:22.089Z,58.97
2023-03-02T10:03:22.123Z,58.23
2023-03-02T10:04:22.150Z,59.77
2023-03-02T10:05:22.038Z,60.03
2023-03-02T10:06:22.027Z,58.61
2023-03-02T10:07:22.025Z,57.68
2023-03-02T10:08:22.021Z,58.01
2023-03-02T10:09:22.007Z,56.96
2023-03-02T10:10:22.021Z,58.59
2023-03-02T10:11:21.993Z,59.34
2023-03-02T10:12:21.980Z,60.20
2023-03-02T10:13:21.974Z,60.01
2023-03-02T10:14:21.968Z,58.68
2023-03-02T10:15:21.970Z,60.25
2023-03-02T10:16:22.023Z,59.57
2023-03-02T10:17:21.969Z,60.19
2023-03-02T10:18:21.964Z,57.94
2023-03-02T10:19:21.945Z,61.07
2023-03-02T10:20:21.953Z,59.75
2023-03-02T10:21:21.935Z,59.43
2023-03-02T10:22:21.942Z,60.25
2023-03-02T10:23:21.910Z,59.73
2023-03-02T10:24:21.901Z,59.53
2023-03-02T10:25:21.903Z,60.59
2023-03-02T10:26:21.896Z,62.78
2023-03-02T10:27:21.890Z,58.64
2023-03-02T10:28:21.907Z,60.23
2023-03-02T10:29:21.918Z,58.76
2023-03-02T10:30:21.878Z,59.97
2023-03-02T10:31:21.878Z,59.82
2023-03-02T10:32:21.890Z,60.84
2023-03-02T10:33:21.855Z,60.80
2023-03-02T10:34:21.843Z,61.13
2023-03-02T10:35:21.864Z,60.29
2023-03-02T10:36:21.827Z,59.47
2023-03-02T10:37:21.887Z,59.93
2023-03-02T10:38:21.806Z,62.91
2023-03-02T10:39:21.791Z,63.17
2023-03-02T10:40:21.794Z,60.94
2023-03-02T10:41:21.782Z,60.06
2023-03-02T10:42:21.826Z,60.45
2023-03-02T10:43:21.786Z,62.94
2023-03-02T10:44:21.776Z,62.06
2023-03-02T10:45:21.767Z,61.52
2023-03-02T10:46:21.779Z,63.44
2023-03-02T10:47:21.748Z,62.33
2023-03-02T10:48:21.842Z,61.84
2023-03-02T10:49:21.734Z,59.97
2023-03-02T10:50:21.757Z,59.58
2023-03-02T10:51:21.725Z,61.38
2023-03-02T10:52:21.701Z,62.03
2023-03-02T10:53:21.721Z,62.37
2023-03-02T10:54:21.691Z,60.06
2023-03-02T10:55:21.679Z,60.09
2023-03-02T10:56:21.711Z,63.10
2023-03-02T10:57:21.687Z,62.28
2023-03-02T10:58:21.665Z,61.13
2023-03-02T10:59:21.660Z,62.62
2023-03-02T11:00:21.649Z,64.95
2023-03-02T11:01:21.668Z,60.15
2023-03-02T11:02:21.677Z,61.97
2023-03-02T11:03:21.628Z,61.84
2023-03-02T11:04:21.691Z,62.04
2023-03-02T11:05:21.629Z,61.56
2023-03-02T11:06:21.604Z,62.53
2023-03-02T11:07:21.623Z,63.00
2023-03-02T11:08:21.632Z,62.83
2023-03-02T11:09:21.606Z,61.70
2023-03-02T11:10:21.589Z,62.85
2023-03-02T11:11:21.671Z,60.34
2023-03-02T11:12:21.572Z,62.38
2023-03-02T11:13:21.619Z,59.56
2023-03-02T11:14:21.558Z,60.24
2023-03-02T11:15:21.552Z,60.65
2023-03-02T11:16:21.584Z,60.31
2023-03-02T11:17:21.529Z,61.23
2023-03-02T11:18:21.566Z,61.84
2023-03-02T11:19:21.604Z,61.70
2023-03-02T11:20:21.530Z,60.20
2023-03-02T11:21:21.521Z,59.01
2023-03-02T11:22:21.510Z,60.32
2023-03-02T11:23:21.497Z,62.88
2023-03-02T11:24:21.489Z,61.49
2023-03-02T11:25:21.541Z,59.99
2023-03-02T11:26:21.493Z,60.04
2023-03-02T11:27:21.472Z,60.42
2023-03-02T11:28:21.459Z,59.80
2023-03-02T11:29:22.732Z,63.23
2023-03-02T11:30:21.449Z,62.05
2023-03-02T11:31:21.523Z,63.00
2023-03-02T11:32:21.473Z,62.30
2023-03-02T11:33:21.499Z,60.57
2023-03-02T11:34:21.600Z,59.40
2023-03-02T11:35:22.716Z,62.67
2023-03-02T11:36:21.425Z,62.71
2023-03-02T11:37:21.431Z,61.64
2023-03-02T11:38:21.422Z,59.40
2023-03-02T11:39:21.393Z,61.40
2023-03-02T11:40:21.527Z,59.79
2023-03-02T11:41:21.390Z,59.76
2023-03-02T11:42:21.466Z,58.29
2023-03-02T11:43:21.366Z,62.96
2023-03-02T11:44:21.379Z,59.35
2023-03-02T11:45:21.417Z,61.45
2023-03-02T11:46:22.369Z,61.60
2023-03-02T11:47:21.410Z,62.22
2023-03-02T11:48:21.364Z,61.48
2023-03-02T11:49:21.356Z,63.13
2023-03-02T11:50:21.408Z,61.18
2023-03-02T11:51:21.337Z,61.48
2023-03-02T11:52:21.330Z,61.50
2023-03-02T11:53:21.347Z,61.62
2023-03-02T11:54:21.300Z,62.67
2023-03-02T11:55:21.305Z,59.21
2023-03-02T11:56:21.317Z,59.36
2023-03-02T11:57:21.295Z,59.70
2023-03-02T11:58:28.321Z,62.17
2023-03-02T11:59:21.291Z,60.44
2023-03-02T12:00:21.382Z,60.98
2023-03-02T12:01:21.257Z,60.62
2023-03-02T12:02:21.299Z,60.43
2023-03-02T12:03:21.237Z,59.45
2023-03-02T12:04:21.233Z,60.51
2023-03-02T12:05:21.241Z,61.34
2023-03-02T12:06:21.239Z,61.31
2023-03-02T12:07:21.214Z,61.17
2023-03-02T12:08:21.256Z,60.16
2023-03-02T12:09:21.233Z,61.15
2023-03-02T12:10:21.285Z,60.10
2023-03-02T12:11:21.188Z,60.47
2023-03-02T12:12:21.190Z,61.50
2023-03-02T12:13:21.180Z,60.47
2023-03-02T12:14:21.193Z,60.66
2023-03-02T12:15:21.166Z,59.98
2023-03-02T12:16:21.212Z,63.05
2023-03-02T12:17:21.144Z,61.75
2023-03-02T12:18:21.165Z,60.41
2023-03-02T12:19:21.164Z,62.52
2023-03-02T12:20:21.129Z,60.15
2023-03-02T12:21:21.120Z,61.23
2023-03-02T12:22:21.130Z,59.88
2023-03-02T12:23:21.110Z,60.92
2023-03-02T12:24:21.104Z,61.40
2023-03-02T12:25:21.121Z,59.38
2023-03-02T12:26:21.098Z,61.39
2023-03-02T12:27:21.128Z,61.24
2023-03-02T12:28:21.095Z,60.77
2023-03-02T12:29:21.137Z,60.80
2023-03-02T12:30:21.193Z,60.89
2023-03-02T12:31:21.109Z,61.52
2023-03-02T12:32:21.093Z,62.36
2023-03-02T12:33:21.113Z,62.87
2023-03-02T12:34:21.068Z,61.92
2023-03-02T12:35:21.100Z,61.34
2023-03-02T12:36:21.042Z,60.74
2023-03-02T12:37:21.051Z,62.69
2023-03-02T12:38:21.088Z,60.50
2023-03-02T12:39:21.009Z,60.58
2023-03-02T12:40:21.032Z,60.97
2023-03-02T12:41:21.023Z,59.97
2023-03-02T12:42:20.998Z,60.25
2023-03-02T12:43:21.035Z,59.54
2023-03-02T12:44:20.972Z,62.57
2023-03-02T12:45:20.981Z,60.77
2023-03-02T12:46:20.986Z,61.45
2023-03-02T12:47:21.522Z,62.50
2023-03-02T12:48:21.029Z,62.26
2023-03-02T12:49:20.983Z,61.73
2023-03-02T12:50:20.946Z,59.83
2023-03-02T12:51:21.076Z,63.41
2023-03-02T12:52:23.475Z,59.46